createdAt,value
2022-11-13T00:00:01.075Z,102015.78
2022-11-13T00:05:02.970Z,102010.38
2022-11-13T00:10:05.377Z,102012.97
2022-11-13T00:15:07.601Z,102000.81
2022-11-13T00:20:09.752Z,101998.06
2022-11-13T00:25:12.089Z,101992.84
2022-11-13T00:30:19.093Z,101990.06
2022-11-13T00:35:21.404Z,101984.94
2022-11-13T00:40:23.278Z,101978.72
2022-11-13T00:45:25.200Z,101968.91
2022-11-13T00:50:28.083Z,101953.03
2022-11-13T00:55:29.832Z,101962.66
2022-11-13T01:00:32.789Z,101949.75
2022-11-13T01:05:39.214Z,101944.41
2022-11-13T01:10:53.202Z,101948.53
2022-11-13T01:15:55.626Z,101946.53
2022-11-13T01:21:09.151Z,101942.13
2022-11-13T01:26:12.503Z,101929.81
2022-11-13T01:31:21.337Z,101927.44
2022-11-13T01:36:26.478Z,101930.00
2022-11-13T01:41:34.057Z,101929.03
2022-11-13T01:46:42.714Z,101924.72
2022-11-13T01:51:50.735Z,101910.72
2022-11-13T01:56:53.815Z,101909.00
2022-11-13T02:01:56.515Z,101899.09
2022-11-13T02:07:02.892Z,101900.94
2022-11-13T02:12:07.397Z,101898.38
2022-11-13T02:17:11.715Z,101897.38
2022-11-13T02:22:27.587Z,101896.69
2022-11-13T02:27:48.370Z,101889.44
2022-11-13T02:32:53.253Z,101885.97
2022-11-13T02:37:56.527Z,101884.25
2022-11-13T02:42:58.356Z,101884.25
2022-11-13T02:48:01.094Z,101881.59
2022-11-13T02:53:03.257Z,101882.41
2022-11-13T02:58:05.643Z,101880.56
2022-11-13T03:03:07.487Z,101870.91
2022-11-13T03:08:09.292Z,101861.13
2022-11-13T03:13:11.113Z,101857.53
2022-11-13T03:18:13.013Z,101849.53
2022-11-13T03:23:14.847Z,101853.97
2022-11-13T03:28:16.863Z,101840.03
2022-11-13T03:33:18.627Z,101839.06
2022-11-13T03:38:20.763Z,101843.44
2022-11-13T03:43:23.483Z,101845.22
2022-11-13T03:48:25.575Z,101844.38
2022-11-13T03:53:27.856Z,101844.31
2022-11-13T03:58:29.994Z,101834.56
2022-11-13T04:03:31.843Z,101842.44
2022-11-13T04:08:33.575Z,101845.09
2022-11-13T04:13:35.327Z,101845.28
2022-11-13T04:18:37.031Z,101827.41
2022-11-13T04:23:38.992Z,101825.59
2022-11-13T04:28:40.772Z,101813.28
2022-11-13T04:33:42.638Z,101805.38
2022-11-13T04:38:44.531Z,101797.31
2022-11-13T04:43:46.582Z,101789.56
2022-11-13T04:48:48.472Z,101790.25
2022-11-13T04:53:50.534Z,101785.06
2022-11-13T04:58:52.720Z,101776.91
2022-11-13T05:03:54.456Z,101768.97
2022-11-13T05:08:56.323Z,101760.19
2022-11-13T05:14:03.240Z,101764.66
2022-11-13T05:19:09.212Z,101766.41
2022-11-13T05:24:12.161Z,101760.19
2022-11-13T05:29:14.107Z,101761.00
2022-11-13T05:34:15.854Z,101755.69
2022-11-13T05:39:17.744Z,101746.84
2022-11-13T05:44:19.784Z,101749.69
2022-11-13T05:49:21.541Z,101749.56
2022-11-13T05:54:23.992Z,101752.38
2022-11-13T05:59:25.901Z,101734.59
2022-11-13T06:04:27.809Z,101723.94
2022-11-13T06:09:29.686Z,101713.31
2022-11-13T06:14:31.523Z,101705.38
2022-11-13T06:19:33.268Z,101700.88
2022-11-13T06:24:34.888Z,101700.75
2022-11-13T06:29:36.737Z,101705.28
2022-11-13T06:34:38.605Z,101696.50
2022-11-13T06:39:40.539Z,101701.81
2022-11-13T06:44:42.925Z,101693.84
2022-11-13T06:49:44.974Z,101690.38
2022-11-13T06:54:46.897Z,101690.34
2022-11-13T06:59:48.734Z,101691.22
2022-11-13T07:04:50.591Z,101690.25
2022-11-13T07:09:52.335Z,101695.66
2022-11-13T07:14:54.234Z,101692.19
2022-11-13T07:19:56.266Z,101698.22
2022-11-13T07:24:58.631Z,101699.25
2022-11-13T07:30:03.619Z,101701.88
2022-11-13T07:35:06.468Z,101697.53
2022-11-13T07:40:08.902Z,101696.56
2022-11-13T07:45:11.004Z,101684.25
2022-11-13T07:50:13.153Z,101684.25
2022-11-13T07:55:15.191Z,101673.38
2022-11-13T08:00:17.620Z,101674.44
2022-11-13T08:05:19.551Z,101674.59
2022-11-13T08:10:21.848Z,101669.19
2022-11-13T08:15:23.752Z,101665.00
2022-11-13T08:20:27.343Z,101668.75
2022-11-13T08:25:30.804Z,101669.06
2022-11-13T08:30:32.818Z,101658.09
2022-11-13T08:35:34.499Z,101661.75
2022-11-13T08:40:36.447Z,101661.06
2022-11-13T08:45:38.440Z,101655.78
2022-11-13T08:50:41.014Z,101659.16
2022-11-13T08:55:42.620Z,101646.38
2022-11-13T09:00:44.618Z,101646.03
2022-11-13T09:05:46.331Z,101642.28
2022-11-13T09:10:48.210Z,101645.84
2022-11-13T09:15:49.851Z,101641.28
2022-11-13T09:20:51.676Z,101627.81
2022-11-13T09:25:53.745Z,101630.47
2022-11-13T09:30:55.978Z,101629.88
2022-11-13T09:35:58.183Z,101622.56
2022-11-13T09:41:10.589Z,101622.38
2022-11-13T09:46:44.443Z,101618.81
2022-11-13T09:51:55.759Z,101609.91
2022-11-13T09:57:06.351Z,101613.72
2022-11-13T10:02:08.135Z,101607.38
2022-11-13T10:07:23.052Z,101615.34
2022-11-13T10:12:28.155Z,101609.16
2022-11-13T10:17:39.459Z,101609.00
2022-11-13T10:22:49.298Z,101606.34
2022-11-13T10:27:56.749Z,101610.66
2022-11-13T10:33:06.138Z,101595.72
2022-11-13T10:38:21.469Z,101592.09
2022-11-13T10:43:26.228Z,101594.78
2022-11-13T10:48:29.960Z,101585.06
2022-11-13T10:53:41.294Z,101583.31
2022-11-13T10:58:42.954Z,101578.00
2022-11-13T11:03:51.243Z,101577.09
2022-11-13T11:08:53.020Z,101572.59
2022-11-13T11:14:20.593Z,101560.34
2022-11-13T11:19:28.893Z,101548.75
2022-11-13T11:24:36.297Z,101546.19
2022-11-13T11:29:44.054Z,101545.47
2022-11-13T11:35:08.353Z,101544.34
2022-11-13T11:40:17.693Z,101531.91
2022-11-13T11:45:41.039Z,101521.38
2022-11-13T11:50:55.540Z,101524.97
2022-11-13T11:55:57.177Z,101516.94
2022-11-13T12:01:07.003Z,101507.63
2022-11-13T12:06:17.903Z,101495.50
2022-11-13T12:11:30.093Z,101490.59
2022-11-13T12:16:50.446Z,101480.59
2022-11-13T12:22:13.122Z,101469.09
2022-11-13T12:27:41.098Z,101464.59
2022-11-13T12:33:04.268Z,101452.59
2022-11-13T12:38:21.709Z,101442.06
2022-11-13T12:43:41.892Z,101430.06
2022-11-13T12:48:48.300Z,101425.44
2022-11-13T12:53:53.117Z,101421.47
2022-11-13T12:59:28.538Z,101412.66
2022-11-13T13:04:43.504Z,101412.41
2022-11-13T13:10:00.120Z,101400.88
2022-11-13T13:15:32.444Z,101386.72
2022-11-13T13:20:38.465Z,101378.00
2022-11-13T13:25:41.442Z,101374.13
2022-11-13T13:30:57.155Z,101354.19
2022-11-13T13:36:15.747Z,101344.66
2022-11-13T13:41:41.649Z,101339.91
2022-11-13T13:46:43.779Z,101335.47
2022-11-13T13:51:49.006Z,101328.69
2022-11-13T13:56:51.393Z,101330.25
2022-11-13T14:02:04.506Z,101322.41
2022-11-13T14:07:18.471Z,101322.28
2022-11-13T14:12:23.513Z,101321.47
2022-11-13T14:17:25.852Z,101321.41
2022-11-13T14:22:28.557Z,101313.44
2022-11-13T14:27:31.293Z,101311.69
2022-11-13T14:32:42.970Z,101321.34
2022-11-13T14:37:48.759Z,101318.75
2022-11-13T14:43:02.760Z,101311.69
2022-11-13T14:48:19.073Z,101305.56
2022-11-13T14:53:32.888Z,101304.59
2022-11-13T14:58:47.532Z,101292.28
2022-11-13T15:03:51.122Z,101296.63
2022-11-13T15:08:58.365Z,101294.75
2022-11-13T15:14:04.303Z,101284.72
2022-11-13T15:19:35.460Z,101274.31
2022-11-13T15:24:37.312Z,101273.44
2022-11-13T15:29:39.067Z,101287.84
2022-11-13T15:34:40.944Z,101272.03
2022-11-13T15:39:44.009Z,101271.63
2022-11-13T15:44:46.246Z,101257.81
2022-11-13T15:50:09.864Z,101261.91
2022-11-13T15:55:36.215Z,101258.97
2022-11-13T16:00:42.756Z,101259.78
2022-11-13T16:05:44.755Z,101259.69
2022-11-13T16:10:46.758Z,101249.53
2022-11-13T16:15:49.771Z,101250.50
2022-11-13T16:20:51.400Z,101254.94
2022-11-13T16:25:54.576Z,101238.53
2022-11-13T16:30:58.060Z,101240.00
2022-11-13T16:35:59.682Z,101234.38
2022-11-13T16:41:02.563Z,101234.53
2022-11-13T16:46:14.594Z,101231.34
2022-11-13T16:51:17.034Z,101229.13
2022-11-13T16:56:31.570Z,101229.16
2022-11-13T17:01:33.783Z,101218.84
2022-11-13T17:06:37.021Z,101210.66
2022-11-13T17:11:40.300Z,101204.16
2022-11-13T17:16:42.159Z,101204.56
2022-11-13T17:21:44.742Z,101196.28
2022-11-13T17:26:46.737Z,101198.19
2022-11-13T17:31:49.093Z,101193.00
2022-11-13T17:36:52.421Z,101178.84
2022-11-13T17:41:54.718Z,101174.88
2022-11-13T17:46:56.868Z,101172.59
2022-11-13T17:51:58.666Z,101172.84
2022-11-13T17:57:02.569Z,101181.19
2022-11-13T18:02:04.609Z,101174.59
2022-11-13T18:07:06.958Z,101179.13
2022-11-13T18:12:08.796Z,101173.81
2022-11-13T18:17:10.440Z,101168.66
2022-11-13T18:22:12.836Z,101166.22
2022-11-13T18:27:15.339Z,101164.31
2022-11-13T18:32:18.309Z,101161.75
2022-11-13T18:37:20.409Z,101151.44
2022-11-13T18:42:22.589Z,101146.50
2022-11-13T18:47:24.620Z,101140.84
2022-11-13T18:52:26.415Z,101131.09
2022-11-13T18:57:28.307Z,101139.06
2022-11-13T19:02:30.350Z,101133.06
2022-11-13T19:07:32.295Z,101124.16
2022-11-13T19:12:34.515Z,101103.34
2022-11-13T19:17:36.524Z,101107.69
2022-11-13T19:22:38.507Z,101106.47
2022-11-13T19:27:40.279Z,101104.63
2022-11-13T19:32:41.975Z,101113.72
2022-11-13T19:37:43.935Z,101111.16
2022-11-13T19:42:45.814Z,101108.34
2022-11-13T19:47:47.688Z,101091.25
2022-11-13T19:52:49.463Z,101099.56
2022-11-13T19:57:51.292Z,101090.13
2022-11-13T20:02:56.042Z,101092.69
2022-11-13T20:07:58.563Z,101099.72
2022-11-13T20:13:00.618Z,101096.19
2022-11-13T20:18:02.514Z,101092.78
2022-11-13T20:23:04.184Z,101084.72
2022-11-13T20:28:06.084Z,101081.97
2022-11-13T20:33:07.901Z,101072.38
2022-11-13T20:38:10.799Z,101063.44
2022-11-13T20:43:12.919Z,101068.06
2022-11-13T20:48:14.932Z,101059.91
2022-11-13T20:53:16.936Z,101045.78
2022-11-13T20:58:19.864Z,101037.56
2022-11-13T21:03:22.411Z,101032.66
2022-11-13T21:08:24.845Z,101029.13
2022-11-13T21:13:27.329Z,101032.50
2022-11-13T21:18:30.756Z,101026.69
2022-11-13T21:23:33.345Z,101029.22
2022-11-13T21:28:35.893Z,101017.41
2022-11-13T21:33:39.212Z,101009.53
2022-11-13T21:38:42.756Z,101006.06
2022-11-13T21:43:44.995Z,101001.47
2022-11-13T21:48:48.092Z,100996.97
2022-11-13T21:53:50.406Z,100983.84
2022-11-13T21:58:53.111Z,100968.94
2022-11-13T22:03:55.152Z,100970.78
2022-11-13T22:08:59.139Z,100961.88
2022-11-13T22:14:01.758Z,100965.09
2022-11-13T22:19:06.095Z,100958.59
2022-11-13T22:24:09.119Z,100949.16
2022-11-13T22:29:11.419Z,100952.75
2022-11-13T22:34:13.119Z,100946.81
2022-11-13T22:39:14.762Z,100936.97
2022-11-13T22:44:16.438Z,100944.06
2022-11-13T22:49:19.256Z,100943.13
2022-11-13T22:54:21.091Z,100944.00
2022-11-13T22:59:22.888Z,100936.97
2022-11-13T23:04:24.638Z,100939.91
2022-11-13T23:09:28.859Z,100931.78
2022-11-13T23:14:30.633Z,100928.19
2022-11-13T23:19:32.577Z,100915.59
2022-11-13T23:24:34.381Z,100903.41
2022-11-13T23:29:36.243Z,100896.38
2022-11-13T23:34:58.642Z,100884.88
2022-11-13T23:39:59.768Z,100881.22
2022-11-13T23:45:01.741Z,100876.13
2022-11-13T23:50:03.821Z,100870.41
2022-11-13T23:55:05.970Z,100871.50
